sensor_id;sensor_type;location;lat;lon;timestamp;temperature;humidity
15152;DHT22;7676;50.900;6.234;2023-12-20T00:10:24;7.30;99.90
15152;DHT22;7676;50.900;6.234;2023-12-20T00:25:26;7.30;99.90
15152;DHT22;7676;50.900;6.234;2023-12-20T00:40:29;7.40;99.90
15152;DHT22;7676;50.900;6.234;2023-12-20T00:55:31;7.40;99.90
15152;DHT22;7676;50.900;6.234;2023-12-20T01:10:34;6.90;99.90
15152;DHT22;7676;50.900;6.234;2023-12-20T01:25:36;6.40;99.90
15152;DHT22;7676;50.900;6.234;2023-12-20T01:40:39;5.90;99.90
15152;DHT22;7676;50.900;6.234;2023-12-20T01:55:42;6.00;99.90
15152;DHT22;7676;50.900;6.234;2023-12-20T02:10:44;6.00;99.90
15152;DHT22;7676;50.900;6.234;2023-12-20T02:25:47;6.00;99.90
15152;DHT22;7676;50.900;6.234;2023-12-20T02:40:50;5.70;99.90
15152;DHT22;7676;50.900;6.234;2023-12-20T02:55:52;5.60;99.90
15152;DHT22;7676;50.900;6.234;2023-12-20T03:10:54;5.80;99.90
15152;DHT22;7676;50.900;6.234;2023-12-20T03:25:57;5.50;99.90
15152;DHT22;7676;50.900;6.234;2023-12-20T03:40:59;5.40;99.90
15152;DHT22;7676;50.900;6.234;2023-12-20T03:56:02;5.50;99.90
15152;DHT22;7676;50.900;6.234;2023-12-20T04:11:05;5.50;99.90
15152;DHT22;7676;50.900;6.234;2023-12-20T04:26:07;5.60;99.90
15152;DHT22;7676;50.900;6.234;2023-12-20T04:41:10;5.20;99.90
15152;DHT22;7676;50.900;6.234;2023-12-20T04:56:12;5.30;99.90
15152;DHT22;7676;50.900;6.234;2023-12-20T05:11:15;5.00;99.90
15152;DHT22;7676;50.900;6.234;2023-12-20T05:26:18;5.00;99.90
15152;DHT22;7676;50.900;6.234;2023-12-20T05:41:20;5.00;99.90
15152;DHT22;7676;50.900;6.234;2023-12-20T05:56:24;5.20;99.90
15152;DHT22;7676;50.900;6.234;2023-12-20T06:11:26;5.30;99.90
15152;DHT22;7676;50.900;6.234;2023-12-20T06:26:29;5.30;99.90
15152;DHT22;7676;50.900;6.234;2023-12-20T06:41:32;5.40;99.90
15152;DHT22;7676;50.900;6.234;2023-12-20T06:56:35;5.50;99.90
15152;DHT22;7676;50.900;6.234;2023-12-20T07:11:37;5.40;99.90
15152;DHT22;7676;50.900;6.234;2023-12-20T07:26:40;5.10;99.90
15152;DHT22;7676;50.900;6.234;2023-12-20T07:41:43;4.90;99.90
15152;DHT22;7676;50.900;6.234;2023-12-20T07:56:49;4.80;99.90
15152;DHT22;7676;50.900;6.234;2023-12-20T08:11:51;4.70;99.90
15152;DHT22;7676;50.900;6.234;2023-12-20T08:26:54;4.50;99.90
15152;DHT22;7676;50.900;6.234;2023-12-20T08:41:56;4.50;99.90
15152;DHT22;7676;50.900;6.234;2023-12-20T08:56:59;4.50;99.90
15152;DHT22;7676;50.900;6.234;2023-12-20T09:12:01;4.60;99.90
15152;DHT22;7676;50.900;6.234;2023-12-20T09:27:05;4.60;99.90
15152;DHT22;7676;50.900;6.234;2023-12-20T09:42:07;4.70;99.90
15152;DHT22;7676;50.900;6.234;2023-12-20T09:57:10;4.70;99.90
15152;DHT22;7676;50.900;6.234;2023-12-20T10:12:12;5.00;99.90
15152;DHT22;7676;50.900;6.234;2023-12-20T10:27:18;4.90;99.90
15152;DHT22;7676;50.900;6.234;2023-12-20T10:42:22;4.90;99.90
15152;DHT22;7676;50.900;6.234;2023-12-20T10:57:27;5.20;99.90
15152;DHT22;7676;50.900;6.234;2023-12-20T11:12:50;5.20;99.90
15152;DHT22;7676;50.900;6.234;2023-12-20T11:28:10;5.20;99.90
15152;DHT22;7676;50.900;6.234;2023-12-20T11:43:32;5.20;99.90
15152;DHT22;7676;50.900;6.234;2023-12-20T11:58:37;5.50;99.90
15152;DHT22;7676;50.900;6.234;2023-12-20T12:13:39;5.50;99.90
15152;DHT22;7676;50.900;6.234;2023-12-20T12:28:42;5.40;99.90
15152;DHT22;7676;50.900;6.234;2023-12-20T12:43:45;5.50;99.90
15152;DHT22;7676;50.900;6.234;2023-12-20T12:58:48;5.50;99.90
15152;DHT22;7676;50.900;6.234;2023-12-20T13:13:50;5.40;99.90
15152;DHT22;7676;50.900;6.234;2023-12-20T13:28:54;5.60;99.90
15152;DHT22;7676;50.900;6.234;2023-12-20T13:43:56;5.50;99.90
15152;DHT22;7676;50.900;6.234;2023-12-20T13:58:59;5.70;99.90
15152;DHT22;7676;50.900;6.234;2023-12-20T14:14:17;5.70;99.90
15152;DHT22;7676;50.900;6.234;2023-12-20T14:30:46;5.70;99.90
15152;DHT22;7676;50.900;6.234;2023-12-20T14:46:00;5.80;99.90
15152;DHT22;7676;50.900;6.234;2023-12-20T15:01:40;5.80;99.90
15152;DHT22;7676;50.900;6.234;2023-12-20T15:16:46;5.90;99.90
15152;DHT22;7676;50.900;6.234;2023-12-20T15:31:51;5.80;99.90
15152;DHT22;7676;50.900;6.234;2023-12-20T15:46:54;5.90;99.90
15152;DHT22;7676;50.900;6.234;2023-12-20T16:01:57;6.00;99.90
15152;DHT22;7676;50.900;6.234;2023-12-20T16:16:59;6.00;99.90
15152;DHT22;7676;50.900;6.234;2023-12-20T16:32:02;6.10;99.90
15152;DHT22;7676;50.900;6.234;2023-12-20T16:47:05;6.10;99.90
15152;DHT22;7676;50.900;6.234;2023-12-20T17:02:20;6.20;99.90
15152;DHT22;7676;50.900;6.234;2023-12-20T17:17:23;6.10;99.90
15152;DHT22;7676;50.900;6.234;2023-12-20T17:48:00;6.30;99.90
15152;DHT22;7676;50.900;6.234;2023-12-20T18:03:03;6.30;99.90
15152;DHT22;7676;50.900;6.234;2023-12-20T18:18:06;6.30;99.90
15152;DHT22;7676;50.900;6.234;2023-12-20T18:33:13;6.40;99.90
15152;DHT22;7676;50.900;6.234;2023-12-20T18:48:16;6.40;99.90
15152;DHT22;7676;50.900;6.234;2023-12-20T19:03:19;6.30;99.90
15152;DHT22;7676;50.900;6.234;2023-12-20T19:18:21;6.40;99.90
15152;DHT22;7676;50.900;6.234;2023-12-20T19:33:24;6.30;99.90
15152;DHT22;7676;50.900;6.234;2023-12-20T19:48:27;6.40;99.90
15152;DHT22;7676;50.900;6.234;2023-12-20T20:03:30;6.60;99.90
15152;DHT22;7676;50.900;6.234;2023-12-20T20:18:32;6.60;99.90
15152;DHT22;7676;50.900;6.234;2023-12-20T20:33:38;6.70;99.90
15152;DHT22;7676;50.900;6.234;2023-12-20T20:48:41;6.70;99.90
15152;DHT22;7676;50.900;6.234;2023-12-20T21:03:54;6.80;99.90
15152;DHT22;7676;50.900;6.234;2023-12-20T21:18:57;6.80;99.90
15152;DHT22;7676;50.900;6.234;2023-12-20T21:34:00;6.80;99.90
15152;DHT22;7676;50.900;6.234;2023-12-20T21:49:03;6.80;99.90
15152;DHT22;7676;50.900;6.234;2023-12-20T22:04:06;6.80;99.90
15152;DHT22;7676;50.900;6.234;2023-12-20T22:19:09;6.70;99.90
15152;DHT22;7676;50.900;6.234;2023-12-20T22:34:12;6.70;99.90
15152;DHT22;7676;50.900;6.234;2023-12-20T22:49:14;6.80;99.90
15152;DHT22;7676;50.900;6.234;2023-12-20T23:04:17;6.80;99.90
15152;DHT22;7676;50.900;6.234;2023-12-20T23:19:20;6.80;99.90
15152;DHT22;7676;50.900;6.234;2023-12-20T23:34:23;6.80;99.90
15152;DHT22;7676;50.900;6.234;2023-12-20T23:49:25;6.90;99.90
